sensor_id;sensor_type;location;lat;lon;timestamp;pressure;altitude;pressure_sealevel;temperature;humidity
71621;BME280;59471;42.254;23.102;2023-03-25T00:01:05;95669.22;;;7.14;74.26
71621;BME280;59471;42.254;23.102;2023-03-25T00:03:34;95676.69;;;7.17;74.51
71621;BME280;59471;42.254;23.102;2023-03-25T00:06:04;95666.59;;;7.14;74.67
71621;BME280;59471;42.254;23.102;2023-03-25T00:08:31;95668.06;;;7.09;75.42
71621;BME280;59471;42.254;23.102;2023-03-25T00:10:58;95668.81;;;6.93;75.89
71621;BME280;59471;42.254;23.102;2023-03-25T00:13:25;95669.28;;;6.72;77.38
71621;BME280;59471;42.254;23.102;2023-03-25T00:15:52;95673.72;;;6.96;76.17
71621;BME280;59471;42.254;23.102;2023-03-25T00:18:23;95671.75;;;6.82;76.53
71621;BME280;59471;42.254;23.102;2023-03-25T00:20:51;95668.19;;;6.99;76.60
71621;BME280;59471;42.254;23.102;2023-03-25T00:23:19;95674.09;;;7.09;75.76
71621;BME280;59471;42.254;23.102;2023-03-25T00:25:45;95674.53;;;6.96;75.65
71621;BME280;59471;42.254;23.102;2023-03-25T00:28:12;95666.59;;;7.06;74.68
71621;BME280;59471;42.254;23.102;2023-03-25T00:30:39;95661.00;;;6.85;76.64
71621;BME280;59471;42.254;23.102;2023-03-25T00:33:06;95665.28;;;6.94;75.93
71621;BME280;59471;42.254;23.102;2023-03-25T00:35:36;95662.50;;;6.95;75.43
71621;BME280;59471;42.254;23.102;2023-03-25T00:38:04;95670.16;;;7.05;75.58
71621;BME280;59471;42.254;23.102;2023-03-25T00:40:32;95671.47;;;7.01;75.68
71621;BME280;59471;42.254;23.102;2023-03-25T00:43:02;95669.84;;;7.00;75.73
71621;BME280;59471;42.254;23.102;2023-03-25T00:45:29;95660.03;;;6.86;76.29
71621;BME280;59471;42.254;23.102;2023-03-25T00:47:56;95653.16;;;6.77;75.76
71621;BME280;59471;42.254;23.102;2023-03-25T00:50:22;95652.50;;;6.66;76.18
71621;BME280;59471;42.254;23.102;2023-03-25T00:52:49;95644.78;;;6.14;78.22
71621;BME280;59471;42.254;23.102;2023-03-25T00:55:17;95648.47;;;6.38;77.13
71621;BME280;59471;42.254;23.102;2023-03-25T00:57:44;95641.63;;;6.37;76.83
71621;BME280;59471;42.254;23.102;2023-03-25T01:00:12;95643.66;;;6.51;77.82
71621;BME280;59471;42.254;23.102;2023-03-25T01:02:40;95649.03;;;6.58;76.92
71621;BME280;59471;42.254;23.102;2023-03-25T01:05:07;95646.34;;;6.84;75.68
71621;BME280;59471;42.254;23.102;2023-03-25T01:07:35;95639.50;;;6.74;75.94
71621;BME280;59471;42.254;23.102;2023-03-25T01:10:03;95630.56;;;6.69;76.13
71621;BME280;59471;42.254;23.102;2023-03-25T01:12:30;95625.22;;;6.79;74.98
71621;BME280;59471;42.254;23.102;2023-03-25T01:14:56;95632.97;;;6.70;74.89
71621;BME280;59471;42.254;23.102;2023-03-25T01:17:21;95623.66;;;6.09;77.86
71621;BME280;59471;42.254;23.102;2023-03-25T01:19:47;95624.44;;;6.44;77.15
71621;BME280;59471;42.254;23.102;2023-03-25T01:22:12;95625.94;;;6.55;77.68
71621;BME280;59471;42.254;23.102;2023-03-25T01:24:38;95621.22;;;6.50;77.01
71621;BME280;59471;42.254;23.102;2023-03-25T01:27:04;95615.25;;;6.66;76.42
71621;BME280;59471;42.254;23.102;2023-03-25T01:29:30;95610.81;;;6.50;77.25
71621;BME280;59471;42.254;23.102;2023-03-25T01:31:56;95611.59;;;6.42;77.09
71621;BME280;59471;42.254;23.102;2023-03-25T01:34:23;95606.56;;;6.49;76.78
71621;BME280;59471;42.254;23.102;2023-03-25T01:36:49;95610.09;;;6.40;77.00
71621;BME280;59471;42.254;23.102;2023-03-25T01:39:16;95610.50;;;6.53;76.48
71621;BME280;59471;42.254;23.102;2023-03-25T01:41:45;95601.34;;;6.41;77.54
71621;BME280;59471;42.254;23.102;2023-03-25T01:46:46;95594.00;;;7.11;75.62
71621;BME280;59471;42.254;23.102;2023-03-25T01:49:16;95591.75;;;7.00;76.46
71621;BME280;59471;42.254;23.102;2023-03-25T01:51:50;95587.47;;;6.83;76.02
71621;BME280;59471;42.254;23.102;2023-03-25T01:54:19;95587.56;;;6.06;79.79
71621;BME280;59471;42.254;23.102;2023-03-25T01:56:46;95581.13;;;5.66;81.27
71621;BME280;59471;42.254;23.102;2023-03-25T01:59:14;95583.69;;;5.58;82.25
71621;BME280;59471;42.254;23.102;2023-03-25T02:01:45;95581.81;;;5.68;82.51
71621;BME280;59471;42.254;23.102;2023-03-25T02:04:12;95581.13;;;6.18;80.54
71621;BME280;59471;42.254;23.102;2023-03-25T02:06:45;95588.84;;;6.44;78.87
71621;BME280;59471;42.254;23.102;2023-03-25T02:09:20;95582.97;;;6.42;78.70
71621;BME280;59471;42.254;23.102;2023-03-25T02:11:47;95582.16;;;6.42;78.59
71621;BME280;59471;42.254;23.102;2023-03-25T02:14:16;95585.28;;;6.54;77.81
71621;BME280;59471;42.254;23.102;2023-03-25T02:17:18;95575.97;;;6.35;78.79
71621;BME280;59471;42.254;23.102;2023-03-25T02:40:21;95572.78;;;5.80;80.50
71621;BME280;59471;42.254;23.102;2023-03-25T02:42:55;95572.38;;;5.93;79.47
71621;BME280;59471;42.254;23.102;2023-03-25T02:45:30;95567.72;;;6.05;77.83
71621;BME280;59471;42.254;23.102;2023-03-25T02:48:02;95573.06;;;6.03;77.50
71621;BME280;59471;42.254;23.102;2023-03-25T02:50:36;95572.88;;;5.97;77.38
71621;BME280;59471;42.254;23.102;2023-03-25T02:53:08;95584.47;;;6.02;77.78
71621;BME280;59471;42.254;23.102;2023-03-25T02:55:36;95576.91;;;5.65;77.53
71621;BME280;59471;42.254;23.102;2023-03-25T02:58:09;95580.53;;;5.72;77.89
71621;BME280;59471;42.254;23.102;2023-03-25T03:00:36;95588.25;;;5.64;77.76
71621;BME280;59471;42.254;23.102;2023-03-25T03:03:04;95583.34;;;5.61;78.79
71621;BME280;59471;42.254;23.102;2023-03-25T03:05:32;95585.66;;;5.64;77.54
71621;BME280;59471;42.254;23.102;2023-03-25T03:11:15;95580.25;;;5.31;78.90
71621;BME280;59471;42.254;23.102;2023-03-25T03:22:02;95585.41;;;4.87;83.65
71621;BME280;59471;42.254;23.102;2023-03-25T03:24:36;95584.00;;;4.93;84.03
71621;BME280;59471;42.254;23.102;2023-03-25T03:27:18;95580.22;;;5.23;83.13
71621;BME280;59471;42.254;23.102;2023-03-25T03:30:21;95576.66;;;5.50;80.45
71621;BME280;59471;42.254;23.102;2023-03-25T03:35:56;95578.81;;;5.55;79.09
71621;BME280;59471;42.254;23.102;2023-03-25T03:38:30;95568.47;;;5.19;79.52
71621;BME280;59471;42.254;23.102;2023-03-25T03:41:09;95577.91;;;5.20;80.35
71621;BME280;59471;42.254;23.102;2023-03-25T03:43:49;95575.31;;;4.84;81.11
71621;BME280;59471;42.254;23.102;2023-03-25T03:46:21;95573.53;;;5.03;81.09
71621;BME280;59471;42.254;23.102;2023-03-25T03:48:54;95578.44;;;5.06;81.25
71621;BME280;59471;42.254;23.102;2023-03-25T03:56:46;95578.50;;;5.58;80.11
71621;BME280;59471;42.254;23.102;2023-03-25T03:59:44;95589.97;;;5.29;80.29
71621;BME280;59471;42.254;23.102;2023-03-25T04:02:21;95584.94;;;5.10;82.53
71621;BME280;59471;42.254;23.102;2023-03-25T04:05:11;95579.56;;;5.29;80.98
71621;BME280;59471;42.254;23.102;2023-03-25T04:07:47;95574.63;;;5.36;80.41
71621;BME280;59471;42.254;23.102;2023-03-25T04:10:32;95583.31;;;5.27;80.48
71621;BME280;59471;42.254;23.102;2023-03-25T04:13:08;95574.81;;;5.43;80.16
71621;BME280;59471;42.254;23.102;2023-03-25T04:15:38;95584.47;;;5.32;79.30
71621;BME280;59471;42.254;23.102;2023-03-25T04:18:04;95575.53;;;5.27;79.00
71621;BME280;59471;42.254;23.102;2023-03-25T04:20:32;95577.09;;;5.02;80.67
71621;BME280;59471;42.254;23.102;2023-03-25T04:23:01;95574.03;;;4.88;81.55
71621;BME280;59471;42.254;23.102;2023-03-25T04:25:29;95576.44;;;4.64;81.96
71621;BME280;59471;42.254;23.102;2023-03-25T04:27:57;95589.41;;;4.64;83.85
71621;BME280;59471;42.254;23.102;2023-03-25T04:30:23;95587.41;;;4.94;83.68
71621;BME280;59471;42.254;23.102;2023-03-25T04:32:52;95595.63;;;5.07;82.07
71621;BME280;59471;42.254;23.102;2023-03-25T04:35:18;95596.88;;;4.85;84.19
71621;BME280;59471;42.254;23.102;2023-03-25T04:37:44;95601.25;;;4.84;82.94
71621;BME280;59471;42.254;23.102;2023-03-25T04:40:15;95608.97;;;4.76;82.21
71621;BME280;59471;42.254;23.102;2023-03-25T04:42:43;95609.97;;;4.48;83.06
71621;BME280;59471;42.254;23.102;2023-03-25T04:45:12;95609.34;;;4.63;83.38
71621;BME280;59471;42.254;23.102;2023-03-25T04:47:42;95617.53;;;4.59;83.31
71621;BME280;59471;42.254;23.102;2023-03-25T04:50:23;95612.81;;;4.54;85.03
71621;BME280;59471;42.254;23.102;2023-03-25T04:52:50;95614.19;;;4.76;84.09
71621;BME280;59471;42.254;23.102;2023-03-25T04:55:18;95604.59;;;4.95;84.21
71621;BME280;59471;42.254;23.102;2023-03-25T04:57:49;95612.09;;;4.98;83.22
71621;BME280;59471;42.254;23.102;2023-03-25T05:00:18;95608.53;;;4.99;83.13
71621;BME280;59471;42.254;23.102;2023-03-25T05:02:48;95599.91;;;5.16;82.52
71621;BME280;59471;42.254;23.102;2023-03-25T05:05:17;95601.31;;;5.10;82.63
71621;BME280;59471;42.254;23.102;2023-03-25T05:07:48;95600.31;;;4.85;83.45
71621;BME280;59471;42.254;23.102;2023-03-25T05:10:16;95594.59;;;4.82;84.50
71621;BME280;59471;42.254;23.102;2023-03-25T05:12:47;95604.38;;;5.06;84.06
71621;BME280;59471;42.254;23.102;2023-03-25T05:15:14;95604.22;;;5.25;84.63
71621;BME280;59471;42.254;23.102;2023-03-25T05:17:41;95603.50;;;5.15;84.13
71621;BME280;59471;42.254;23.102;2023-03-25T05:20:09;95599.16;;;5.42;84.33
71621;BME280;59471;42.254;23.102;2023-03-25T05:22:36;95594.44;;;5.63;82.98
71621;BME280;59471;42.254;23.102;2023-03-25T05:25:06;95601.69;;;5.86;82.31
71621;BME280;59471;42.254;23.102;2023-03-25T05:27:34;95599.06;;;5.77;82.97
71621;BME280;59471;42.254;23.102;2023-03-25T05:30:01;95599.22;;;5.50;83.52
71621;BME280;59471;42.254;23.102;2023-03-25T05:32:28;95595.81;;;5.75;83.47
71621;BME280;59471;42.254;23.102;2023-03-25T05:34:55;95594.28;;;5.91;83.46
71621;BME280;59471;42.254;23.102;2023-03-25T05:37:21;95590.50;;;6.11;82.13
71621;BME280;59471;42.254;23.102;2023-03-25T05:39:46;95592.41;;;6.01;82.32
71621;BME280;59471;42.254;23.102;2023-03-25T05:42:13;95596.81;;;5.82;82.11
71621;BME280;59471;42.254;23.102;2023-03-25T05:44:38;95594.84;;;6.02;81.61
71621;BME280;59471;42.254;23.102;2023-03-25T05:47:11;95592.88;;;6.31;81.57
71621;BME280;59471;42.254;23.102;2023-03-25T05:49:38;95589.69;;;6.11;81.83
71621;BME280;59471;42.254;23.102;2023-03-25T05:52:06;95590.78;;;6.08;82.47
71621;BME280;59471;42.254;23.102;2023-03-25T05:54:33;95589.56;;;6.20;81.56
71621;BME280;59471;42.254;23.102;2023-03-25T05:57:03;95596.91;;;6.33;81.16
71621;BME280;59471;42.254;23.102;2023-03-25T05:59:29;95608.97;;;6.42;81.51
71621;BME280;59471;42.254;23.102;2023-03-25T06:01:55;95615.34;;;6.48;80.02
71621;BME280;59471;42.254;23.102;2023-03-25T06:04:21;95604.34;;;6.62;80.19
71621;BME280;59471;42.254;23.102;2023-03-25T06:06:47;95600.00;;;6.95;79.33
71621;BME280;59471;42.254;23.102;2023-03-25T06:09:13;95603.28;;;7.14;78.97
71621;BME280;59471;42.254;23.102;2023-03-25T06:11:39;95607.03;;;7.52;76.99
71621;BME280;59471;42.254;23.102;2023-03-25T06:14:05;95605.41;;;7.51;77.18
71621;BME280;59471;42.254;23.102;2023-03-25T06:16:31;95594.81;;;7.61;77.43
71621;BME280;59471;42.254;23.102;2023-03-25T06:18:58;95596.59;;;7.85;77.35
71621;BME280;59471;42.254;23.102;2023-03-25T06:21:30;95599.66;;;7.80;77.10
71621;BME280;59471;42.254;23.102;2023-03-25T06:23:57;95597.88;;;7.89;77.12
71621;BME280;59471;42.254;23.102;2023-03-25T06:26:25;95590.34;;;8.02;75.89
71621;BME280;59471;42.254;23.102;2023-03-25T06:28:51;95590.81;;;8.06;75.77
71621;BME280;59471;42.254;23.102;2023-03-25T06:31:18;95593.56;;;8.12;76.14
71621;BME280;59471;42.254;23.102;2023-03-25T06:33:48;95594.34;;;8.29;75.71
71621;BME280;59471;42.254;23.102;2023-03-25T06:36:15;95595.16;;;8.22;76.09
71621;BME280;59471;42.254;23.102;2023-03-25T06:38:46;95587.59;;;8.35;75.48
71621;BME280;59471;42.254;23.102;2023-03-25T06:41:14;95590.56;;;8.40;74.94
71621;BME280;59471;42.254;23.102;2023-03-25T06:43:44;95603.25;;;8.51;75.74
71621;BME280;59471;42.254;23.102;2023-03-25T06:46:11;95593.06;;;8.65;74.97
71621;BME280;59471;42.254;23.102;2023-03-25T06:48:37;95599.06;;;8.96;74.41
71621;BME280;59471;42.254;23.102;2023-03-25T06:51:03;95601.19;;;9.24;74.13
71621;BME280;59471;42.254;23.102;2023-03-25T06:53:28;95596.03;;;9.08;73.75
71621;BME280;59471;42.254;23.102;2023-03-25T06:55:57;95601.09;;;9.32;74.31
71621;BME280;59471;42.254;23.102;2023-03-25T06:58:23;95600.97;;;9.48;74.92
71621;BME280;59471;42.254;23.102;2023-03-25T07:00:53;95603.38;;;9.73;74.85
71621;BME280;59471;42.254;23.102;2023-03-25T07:03:19;95611.16;;;9.81;73.22
71621;BME280;59471;42.254;23.102;2023-03-25T07:05:46;95602.41;;;9.89;73.74
71621;BME280;59471;42.254;23.102;2023-03-25T07:08:13;95601.41;;;10.05;71.29
71621;BME280;59471;42.254;23.102;2023-03-25T07:10:39;95590.97;;;10.05;69.26
71621;BME280;59471;42.254;23.102;2023-03-25T07:13:05;95601.09;;;10.37;67.80
71621;BME280;59471;42.254;23.102;2023-03-25T07:15:30;95593.13;;;10.46;68.25
71621;BME280;59471;42.254;23.102;2023-03-25T07:17:56;95590.94;;;10.64;67.46
71621;BME280;59471;42.254;23.102;2023-03-25T07:20:21;95590.44;;;10.90;66.49
71621;BME280;59471;42.254;23.102;2023-03-25T07:22:47;95586.13;;;10.82;67.01
71621;BME280;59471;42.254;23.102;2023-03-25T07:25:12;95579.28;;;11.03;66.77
71621;BME280;59471;42.254;23.102;2023-03-25T07:27:39;95585.47;;;11.17;66.38
71621;BME280;59471;42.254;23.102;2023-03-25T07:30:05;95591.31;;;11.19;66.88
71621;BME280;59471;42.254;23.102;2023-03-25T07:32:31;95582.41;;;11.13;66.56
71621;BME280;59471;42.254;23.102;2023-03-25T07:34:57;95583.03;;;11.15;67.22
71621;BME280;59471;42.254;23.102;2023-03-25T07:37:22;95578.53;;;11.09;66.93
71621;BME280;59471;42.254;23.102;2023-03-25T07:39:48;95584.91;;;11.43;66.17
71621;BME280;59471;42.254;23.102;2023-03-25T07:42:13;95584.41;;;11.54;65.82
71621;BME280;59471;42.254;23.102;2023-03-25T07:44:39;95584.19;;;11.55;65.20
71621;BME280;59471;42.254;23.102;2023-03-25T07:47:05;95568.97;;;11.72;65.92
71621;BME280;59471;42.254;23.102;2023-03-25T07:49:30;95572.38;;;11.94;65.55
71621;BME280;59471;42.254;23.102;2023-03-25T07:51:56;95578.69;;;12.35;64.82
71621;BME280;59471;42.254;23.102;2023-03-25T07:54:21;95574.19;;;12.28;63.78
71621;BME280;59471;42.254;23.102;2023-03-25T07:56:49;95573.09;;;12.51;63.03
71621;BME280;59471;42.254;23.102;2023-03-25T07:59:17;95572.97;;;12.72;62.50
71621;BME280;59471;42.254;23.102;2023-03-25T08:01:42;95569.97;;;12.82;61.42
71621;BME280;59471;42.254;23.102;2023-03-25T08:04:08;95568.00;;;12.91;61.46
71621;BME280;59471;42.254;23.102;2023-03-25T08:06:34;95558.66;;;12.82;61.24
71621;BME280;59471;42.254;23.102;2023-03-25T08:08:59;95561.13;;;13.03;60.87
71621;BME280;59471;42.254;23.102;2023-03-25T08:11:25;95556.91;;;13.02;60.82
71621;BME280;59471;42.254;23.102;2023-03-25T08:13:50;95552.47;;;13.09;60.46
71621;BME280;59471;42.254;23.102;2023-03-25T08:16:16;95547.78;;;13.11;60.56
71621;BME280;59471;42.254;23.102;2023-03-25T08:18:42;95547.44;;;13.21;60.77
71621;BME280;59471;42.254;23.102;2023-03-25T08:21:10;95551.91;;;13.34;60.05
71621;BME280;59471;42.254;23.102;2023-03-25T08:23:36;95539.34;;;13.36;60.06
71621;BME280;59471;42.254;23.102;2023-03-25T08:26:02;95540.97;;;13.63;60.49
71621;BME280;59471;42.254;23.102;2023-03-25T08:28:30;95535.25;;;13.93;57.78
71621;BME280;59471;42.254;23.102;2023-03-25T08:30:56;95523.97;;;13.79;59.05
71621;BME280;59471;42.254;23.102;2023-03-25T08:33:24;95521.84;;;14.14;57.33
71621;BME280;59471;42.254;23.102;2023-03-25T08:36:05;95522.69;;;14.08;55.33
71621;BME280;59471;42.254;23.102;2023-03-25T08:38:34;95520.19;;;14.27;55.45
71621;BME280;59471;42.254;23.102;2023-03-25T08:41:00;95523.56;;;14.47;55.71
71621;BME280;59471;42.254;23.102;2023-03-25T08:43:26;95511.78;;;14.50;56.48
71621;BME280;59471;42.254;23.102;2023-03-25T08:45:52;95509.63;;;14.85;55.68
71621;BME280;59471;42.254;23.102;2023-03-25T08:48:17;95514.13;;;15.10;54.87
71621;BME280;59471;42.254;23.102;2023-03-25T08:50:43;95504.84;;;15.07;54.48
71621;BME280;59471;42.254;23.102;2023-03-25T08:53:09;95502.22;;;15.32;54.78
71621;BME280;59471;42.254;23.102;2023-03-25T08:55:35;95489.97;;;14.81;54.65
71621;BME280;59471;42.254;23.102;2023-03-25T08:58:02;95500.59;;;14.99;55.04
71621;BME280;59471;42.254;23.102;2023-03-25T09:00:28;95503.16;;;15.13;54.73
71621;BME280;59471;42.254;23.102;2023-03-25T09:02:55;95495.00;;;15.46;54.74
71621;BME280;59471;42.254;23.102;2023-03-25T09:05:23;95490.88;;;15.75;53.28
71621;BME280;59471;42.254;23.102;2023-03-25T09:07:49;95483.88;;;16.06;54.32
71621;BME280;59471;42.254;23.102;2023-03-25T09:10:15;95475.78;;;16.19;52.07
71621;BME280;59471;42.254;23.102;2023-03-25T09:12:41;95476.09;;;16.11;53.23
71621;BME280;59471;42.254;23.102;2023-03-25T09:15:09;95468.38;;;16.28;52.62
71621;BME280;59471;42.254;23.102;2023-03-25T09:17:36;95467.66;;;16.20;51.57
71621;BME280;59471;42.254;23.102;2023-03-25T09:20:02;95462.59;;;16.19;51.56
71621;BME280;59471;42.254;23.102;2023-03-25T09:22:28;95461.59;;;16.50;51.25
71621;BME280;59471;42.254;23.102;2023-03-25T09:24:53;95453.28;;;16.65;49.59
71621;BME280;59471;42.254;23.102;2023-03-25T09:27:19;95451.50;;;16.77;49.52
71621;BME280;59471;42.254;23.102;2023-03-25T09:29:45;95449.38;;;16.98;48.21
71621;BME280;59471;42.254;23.102;2023-03-25T09:32:10;95438.84;;;16.79;50.41
71621;BME280;59471;42.254;23.102;2023-03-25T09:34:36;95446.72;;;16.98;49.43
71621;BME280;59471;42.254;23.102;2023-03-25T09:37:03;95427.06;;;17.17;47.73
71621;BME280;59471;42.254;23.102;2023-03-25T09:39:28;95437.56;;;17.35;45.79
71621;BME280;59471;42.254;23.102;2023-03-25T09:44:51;95428.72;;;17.53;45.39
71621;BME280;59471;42.254;23.102;2023-03-25T09:47:23;95425.84;;;17.78;44.43
71621;BME280;59471;42.254;23.102;2023-03-25T09:49:54;95420.50;;;17.90;44.36
71621;BME280;59471;42.254;23.102;2023-03-25T09:52:46;95413.97;;;17.81;45.43
71621;BME280;59471;42.254;23.102;2023-03-25T09:55:24;95410.19;;;18.29;42.44
71621;BME280;59471;42.254;23.102;2023-03-25T09:57:59;95399.13;;;18.49;39.57
71621;BME280;59471;42.254;23.102;2023-03-25T10:00:28;95396.97;;;18.74;37.79
71621;BME280;59471;42.254;23.102;2023-03-25T10:03:18;95392.22;;;18.77;38.28
71621;BME280;59471;42.254;23.102;2023-03-25T10:12:02;95382.78;;;18.12;38.08
71621;BME280;59471;42.254;23.102;2023-03-25T10:17:40;95377.34;;;18.75;37.05
71621;BME280;59471;42.254;23.102;2023-03-25T10:20:29;95367.91;;;18.68;37.80
71621;BME280;59471;42.254;23.102;2023-03-25T10:23:13;95359.69;;;18.98;36.77
71621;BME280;59471;42.254;23.102;2023-03-25T10:25:47;95359.28;;;18.89;35.98
71621;BME280;59471;42.254;23.102;2023-03-25T10:28:27;95350.56;;;18.94;35.11
71621;BME280;59471;42.254;23.102;2023-03-25T10:30:57;95341.00;;;19.27;34.16
71621;BME280;59471;42.254;23.102;2023-03-25T10:36:05;95342.38;;;19.90;34.01
71621;BME280;59471;42.254;23.102;2023-03-25T10:38:35;95335.41;;;19.84;33.85
71621;BME280;59471;42.254;23.102;2023-03-25T10:43:55;95326.72;;;20.16;33.18
71621;BME280;59471;42.254;23.102;2023-03-25T10:48:58;95320.59;;;20.42;37.81
71621;BME280;59471;42.254;23.102;2023-03-25T10:51:34;95314.34;;;20.04;33.43
71621;BME280;59471;42.254;23.102;2023-03-25T10:54:01;95316.84;;;19.89;34.12
71621;BME280;59471;42.254;23.102;2023-03-25T10:56:33;95312.25;;;20.06;34.18
71621;BME280;59471;42.254;23.102;2023-03-25T11:02:22;95307.84;;;20.44;34.51
71621;BME280;59471;42.254;23.102;2023-03-25T11:05:00;95298.94;;;20.55;34.95
71621;BME280;59471;42.254;23.102;2023-03-25T11:07:38;95293.19;;;20.42;33.41
71621;BME280;59471;42.254;23.102;2023-03-25T11:10:23;95283.97;;;20.49;33.51
71621;BME280;59471;42.254;23.102;2023-03-25T11:12:50;95277.81;;;20.76;33.67
71621;BME280;59471;42.254;23.102;2023-03-25T11:15:35;95276.28;;;20.85;33.12
71621;BME280;59471;42.254;23.102;2023-03-25T11:18:06;95261.03;;;21.13;35.22
71621;BME280;59471;42.254;23.102;2023-03-25T11:20:39;95266.00;;;21.41;34.20
71621;BME280;59471;42.254;23.102;2023-03-25T11:23:32;95256.06;;;20.89;31.48
71621;BME280;59471;42.254;23.102;2023-03-25T11:26:18;95258.44;;;21.28;31.34
71621;BME280;59471;42.254;23.102;2023-03-25T11:28:47;95258.72;;;21.99;33.94
71621;BME280;59471;42.254;23.102;2023-03-25T11:31:19;95245.91;;;21.96;31.40
71621;BME280;59471;42.254;23.102;2023-03-25T11:34:17;95245.38;;;21.94;32.14
71621;BME280;59471;42.254;23.102;2023-03-25T11:36:52;95240.84;;;21.95;30.98
71621;BME280;59471;42.254;23.102;2023-03-25T11:41:48;95226.38;;;21.65;32.40
71621;BME280;59471;42.254;23.102;2023-03-25T11:44:21;95226.19;;;22.03;31.81
71621;BME280;59471;42.254;23.102;2023-03-25T11:46:58;95218.78;;;22.51;32.00
71621;BME280;59471;42.254;23.102;2023-03-25T11:49:28;95220.06;;;22.02;29.13
71621;BME280;59471;42.254;23.102;2023-03-25T11:52:02;95213.28;;;21.54;31.39
71621;BME280;59471;42.254;23.102;2023-03-25T11:54:34;95210.16;;;21.77;31.74
71621;BME280;59471;42.254;23.102;2023-03-25T11:57:11;95207.53;;;21.92;32.84
71621;BME280;59471;42.254;23.102;2023-03-25T11:59:48;95203.81;;;21.98;31.81
71621;BME280;59471;42.254;23.102;2023-03-25T12:02:25;95200.13;;;22.30;31.96
71621;BME280;59471;42.254;23.102;2023-03-25T12:07:22;95191.25;;;21.79;31.79
71621;BME280;59471;42.254;23.102;2023-03-25T12:09:57;95189.16;;;22.21;30.45
71621;BME280;59471;42.254;23.102;2023-03-25T12:12:42;95189.44;;;22.51;29.64
71621;BME280;59471;42.254;23.102;2023-03-25T12:23:52;95186.69;;;21.84;31.96
71621;BME280;59471;42.254;23.102;2023-03-25T12:35:45;95171.97;;;21.41;33.49
71621;BME280;59471;42.254;23.102;2023-03-25T12:39:04;95160.59;;;21.91;33.20
71621;BME280;59471;42.254;23.102;2023-03-25T12:41:48;95162.72;;;22.10;31.62
71621;BME280;59471;42.254;23.102;2023-03-25T12:52:57;95165.00;;;21.40;31.63
71621;BME280;59471;42.254;23.102;2023-03-25T12:55:50;95167.41;;;21.36;32.86
71621;BME280;59471;42.254;23.102;2023-03-25T12:58:37;95156.66;;;21.21;33.19
71621;BME280;59471;42.254;23.102;2023-03-25T13:12:45;95154.03;;;21.26;32.75
71621;BME280;59471;42.254;23.102;2023-03-25T13:15:25;95158.22;;;21.12;33.34
71621;BME280;59471;42.254;23.102;2023-03-25T13:17:56;95153.41;;;21.09;32.60
71621;BME280;59471;42.254;23.102;2023-03-25T13:20:30;95147.47;;;20.81;33.10
71621;BME280;59471;42.254;23.102;2023-03-25T13:23:03;95152.53;;;20.88;33.66
71621;BME280;59471;42.254;23.102;2023-03-25T13:31:39;95159.50;;;20.51;32.98
71621;BME280;59471;42.254;23.102;2023-03-25T13:35:06;95154.03;;;20.31;33.35
71621;BME280;59471;42.254;23.102;2023-03-25T13:37:30;95167.41;;;20.09;33.19
71621;BME280;59471;42.254;23.102;2023-03-25T13:51:06;95176.97;;;19.78;32.97
71621;BME280;59471;42.254;23.102;2023-03-25T13:53:40;95179.44;;;19.62;33.09
71621;BME280;59471;42.254;23.102;2023-03-25T13:59:21;95197.75;;;19.37;34.46
71621;BME280;59471;42.254;23.102;2023-03-25T14:11:14;95211.72;;;18.71;36.94
71621;BME280;59471;42.254;23.102;2023-03-25T14:14:07;95214.81;;;18.46;39.27
71621;BME280;59471;42.254;23.102;2023-03-25T14:16:40;95222.84;;;18.35;40.82
71621;BME280;59471;42.254;23.102;2023-03-25T14:19:14;95209.84;;;18.16;41.59
71621;BME280;59471;42.254;23.102;2023-03-25T14:21:46;95206.63;;;17.97;42.96
71621;BME280;59471;42.254;23.102;2023-03-25T14:26:57;95204.16;;;17.79;42.62
71621;BME280;59471;42.254;23.102;2023-03-25T14:29:45;95203.25;;;17.45;47.06
71621;BME280;59471;42.254;23.102;2023-03-25T14:34:43;95212.16;;;17.27;47.60
71621;BME280;59471;42.254;23.102;2023-03-25T14:39:42;95197.19;;;17.32;47.96
71621;BME280;59471;42.254;23.102;2023-03-25T14:42:10;95205.00;;;17.27;50.34
71621;BME280;59471;42.254;23.102;2023-03-25T14:44:49;95213.53;;;17.29;53.08
71621;BME280;59471;42.254;23.102;2023-03-25T14:49:55;95221.28;;;17.07;54.53
71621;BME280;59471;42.254;23.102;2023-03-25T14:52:41;95212.22;;;17.03;55.23
71621;BME280;59471;42.254;23.102;2023-03-25T14:55:20;95219.47;;;16.84;55.09
71621;BME280;59471;42.254;23.102;2023-03-25T14:57:59;95215.00;;;16.85;54.29
71621;BME280;59471;42.254;23.102;2023-03-25T15:00:58;95201.88;;;16.90;54.13
71621;BME280;59471;42.254;23.102;2023-03-25T15:03:34;95192.19;;;16.96;54.35
71621;BME280;59471;42.254;23.102;2023-03-25T15:06:02;95189.09;;;16.99;54.06
71621;BME280;59471;42.254;23.102;2023-03-25T15:08:39;95176.19;;;17.14;54.16
71621;BME280;59471;42.254;23.102;2023-03-25T15:11:11;95174.50;;;16.96;54.18
71621;BME280;59471;42.254;23.102;2023-03-25T15:13:46;95170.03;;;16.97;54.04
71621;BME280;59471;42.254;23.102;2023-03-25T15:16:33;95162.78;;;16.92;54.41
71621;BME280;59471;42.254;23.102;2023-03-25T15:19:10;95156.09;;;17.01;53.98
71621;BME280;59471;42.254;23.102;2023-03-25T15:24:27;95148.22;;;17.18;52.25
71621;BME280;59471;42.254;23.102;2023-03-25T15:26:54;95142.56;;;17.14;51.64
71621;BME280;59471;42.254;23.102;2023-03-25T15:29:41;95134.13;;;17.01;52.59
71621;BME280;59471;42.254;23.102;2023-03-25T15:47:21;95116.84;;;17.10;50.97
71621;BME280;59471;42.254;23.102;2023-03-25T15:55:21;95132.19;;;16.96;52.02
71621;BME280;59471;42.254;23.102;2023-03-25T15:58:06;95121.25;;;16.92;52.53
71621;BME280;59471;42.254;23.102;2023-03-25T16:00:41;95118.38;;;16.94;52.80
71621;BME280;59471;42.254;23.102;2023-03-25T16:03:14;95123.63;;;16.77;53.83
71621;BME280;59471;42.254;23.102;2023-03-25T16:05:46;95126.00;;;16.67;53.88
71621;BME280;59471;42.254;23.102;2023-03-25T16:08:18;95126.56;;;16.69;54.02